Time;durP1;ratioP1;P1;durP2;ratioP2;P2;SDS_P1;SDS_P2;PMS_P1;PMS_P2;Temp;Humidity;BMP_temperature;BMP_pressure;BME280_temperature;BME280_humidity;BME280_pressure;Samples;Min_cycle;Max_cycle;Signal;HPM_P1;HPM_P2
2022/03/20 00:02:24;;;;;;;10.67;7.77;;;4.80;95.10;;;;;;5014527;28;20193;-67
2022/03/20 00:04:50;;;;;;;14.43;8.73;;;4.90;95.10;;;;;;5014368;28;20194;-66
2022/03/20 00:07:15;;;;;;;12.70;7.87;;;4.80;94.90;;;;;;5014884;28;20757;-67
2022/03/20 00:09:42;;;;;;;7.23;6.00;;;4.90;94.80;;;;;;5014831;28;20209;-67
2022/03/20 00:12:08;;;;;;;12.30;9.38;;;4.80;94.60;;;;;;5015997;28;20167;-67
2022/03/20 00:14:34;;;;;;;9.40;6.60;;;4.80;94.50;;;;;;5033997;28;20233;-68
2022/03/20 00:17:00;;;;;;;7.93;6.83;;;4.90;94.60;;;;;;5034558;28;20205;-67
2022/03/20 00:19:25;;;;;;;12.63;8.27;;;4.80;94.70;;;;;;5034395;28;20186;-67
2022/03/20 00:21:51;;;;;;;7.33;5.80;;;4.90;94.60;;;;;;5034339;28;20167;-68
2022/03/20 00:24:18;;;;;;;10.07;7.40;;;4.80;94.30;;;;;;5033917;28;20397;-68
2022/03/20 00:26:44;;;;;;;9.60;7.63;;;4.90;94.20;;;;;;5033651;28;20195;-69
2022/03/20 00:29:09;;;;;;;9.37;7.10;;;4.90;94.20;;;;;;5014683;28;20175;-66
2022/03/20 00:31:35;;;;;;;9.60;7.27;;;4.90;94.20;;;;;;5014453;28;20198;-66
2022/03/20 00:34:01;;;;;;;13.27;7.75;;;4.90;94.10;;;;;;5013957;28;20174;-69
2022/03/20 00:36:27;;;;;;;14.43;8.90;;;4.90;94.20;;;;;;5014161;28;20187;-66
2022/03/20 00:38:52;;;;;;;13.60;7.73;;;4.90;94.10;;;;;;5014342;28;20163;-68
2022/03/20 00:41:18;;;;;;;8.93;8.00;;;4.90;93.90;;;;;;5014190;28;20202;-67
2022/03/20 00:43:43;;;;;;;9.33;7.70;;;4.80;94.10;;;;;;5032184;28;20189;-67
2022/03/20 00:46:09;;;;;;;15.70;10.17;;;4.90;94.00;;;;;;5033995;28;20273;-68
2022/03/20 00:48:35;;;;;;;19.63;9.43;;;4.90;93.80;;;;;;5033838;28;20170;-67
2022/03/20 00:51:03;;;;;;;9.37;7.50;;;4.90;93.60;;;;;;5024329;28;20198;-66
2022/03/20 00:53:30;;;;;;;11.73;7.70;;;4.90;93.80;;;;;;5031411;28;20177;-67
2022/03/20 00:55:56;;;;;;;11.95;9.13;;;4.90;94.10;;;;;;5033787;28;20182;-69
2022/03/20 00:58:22;;;;;;;8.27;7.47;;;4.80;94.30;;;;;;5033715;28;20245;-66
2022/03/20 01:00:48;;;;;;;10.23;6.73;;;4.90;94.40;;;;;;5033877;28;20371;-67
2022/03/20 01:03:13;;;;;;;9.20;8.30;;;4.80;94.20;;;;;;5033182;28;20319;-66
2022/03/20 01:05:39;;;;;;;11.10;8.63;;;4.80;94.10;;;;;;5033134;28;20528;-69
2022/03/20 01:08:05;;;;;;;10.33;7.83;;;4.80;94.20;;;;;;5033764;28;20169;-68
2022/03/20 01:10:30;;;;;;;11.30;5.73;;;4.90;94.10;;;;;;5032241;28;20204;-66
2022/03/20 01:12:56;;;;;;;8.17;7.20;;;4.80;93.80;;;;;;5031994;28;20170;-66
2022/03/20 01:15:21;;;;;;;9.93;7.17;;;4.90;93.70;;;;;;5032303;28;20186;-67
2022/03/20 01:17:47;;;;;;;14.77;9.90;;;4.90;93.70;;;;;;5033326;28;20174;-67
2022/03/20 01:20:13;;;;;;;9.30;8.10;;;4.90;93.80;;;;;;5026560;28;20179;-67
2022/03/20 01:22:40;;;;;;;8.90;7.93;;;4.90;93.70;;;;;;5013769;28;20170;-66
2022/03/20 01:25:07;;;;;;;13.30;7.32;;;4.90;93.90;;;;;;5013229;28;20615;-67
2022/03/20 01:27:33;;;;;;;9.30;8.35;;;4.90;93.90;;;;;;5013810;28;20574;-69
2022/03/20 01:29:59;;;;;;;11.13;9.75;;;4.90;93.70;;;;;;5013678;28;20616;-68
2022/03/20 01:32:26;;;;;;;7.47;6.50;;;4.90;93.70;;;;;;5013796;28;20250;-66
2022/03/20 01:34:52;;;;;;;8.27;7.10;;;4.90;93.70;;;;;;5018422;28;20193;-66
2022/03/20 01:37:18;;;;;;;9.25;6.40;;;4.90;94.00;;;;;;5033086;28;20174;-68
2022/03/20 01:39:45;;;;;;;8.87;7.97;;;4.90;94.00;;;;;;5033011;28;20173;-68
2022/03/20 01:42:11;;;;;;;12.07;6.78;;;4.90;94.10;;;;;;5033156;28;20454;-68
2022/03/20 01:44:36;;;;;;;10.33;6.87;;;4.80;94.10;;;;;;5032565;28;20284;-68
2022/03/20 01:47:05;;;;;;;7.80;6.80;;;4.80;94.30;;;;;;5033060;28;20431;-66
2022/03/20 01:49:31;;;;;;;11.90;7.53;;;4.80;94.20;;;;;;5027486;28;20264;-68
2022/03/20 01:52:14;;;;;;;8.10;7.30;;;4.80;94.10;;;;;;5013395;28;20653;-67
2022/03/20 01:54:44;;;;;;;10.63;6.60;;;4.80;94.00;;;;;;5012807;28;20210;-66
2022/03/20 01:57:13;;;;;;;10.07;7.85;;;4.80;93.90;;;;;;5013259;28;20167;-65
2022/03/20 01:59:39;;;;;;;8.73;7.40;;;4.80;93.80;;;;;;5013307;28;20167;-67
2022/03/20 02:02:05;;;;;;;13.50;8.75;;;4.80;93.70;;;;;;5013091;28;20543;-67
2022/03/20 02:04:34;;;;;;;11.15;7.50;;;4.90;93.50;;;;;;5019567;28;20197;-67
2022/03/20 02:07:00;;;;;;;13.32;6.95;;;4.90;93.30;;;;;;5029487;28;20244;-70
2022/03/20 02:09:26;;;;;;;9.63;7.80;;;4.90;93.20;;;;;;5013318;28;20167;-65
2022/03/20 02:11:52;;;;;;;8.33;6.83;;;4.90;93.10;;;;;;5013296;28;20217;-67
2022/03/20 02:14:18;;;;;;;9.67;6.97;;;4.90;93.10;;;;;;5012589;28;20430;-66
2022/03/20 02:16:44;;;;;;;12.70;7.93;;;4.90;93.20;;;;;;5012984;28;20912;-65
2022/03/20 02:19:13;;;;;;;8.35;7.40;;;4.90;93.30;;;;;;5013902;28;20819;-66
2022/03/20 02:21:40;;;;;;;12.00;9.02;;;4.90;93.30;;;;;;5013219;28;20179;-68
2022/03/20 02:24:36;;;;;;;9.57;6.78;;;4.90;93.40;;;;;;5012624;28;20661;-68
2022/03/20 02:27:12;;;;;;;9.43;6.45;;;4.90;93.60;;;;;;5017386;28;20236;-67
2022/03/20 02:29:42;;;;;;;11.73;8.02;;;4.80;93.80;;;;;;5016880;28;20166;-67
2022/03/20 02:32:10;;;;;;;10.55;7.25;;;4.80;93.90;;;;;;5016820;28;20163;-67
2022/03/20 02:34:36;;;;;;;11.10;8.10;;;4.80;94.40;;;;;;5016142;28;20187;-67
2022/03/20 02:37:03;;;;;;;7.82;6.78;;;4.80;94.00;;;;;;5016486;28;20221;-67
2022/03/20 02:39:29;;;;;;;9.15;6.35;;;4.80;94.20;;;;;;5016550;28;20182;-66
2022/03/20 02:41:56;;;;;;;13.02;9.35;;;4.80;94.30;;;;;;5018199;28;20622;-66
2022/03/20 02:44:47;;;;;;;9.35;7.20;;;4.80;94.20;;;;;;5035800;28;20185;-66
2022/03/20 02:47:13;;;;;;;6.75;6.10;;;4.80;94.20;;;;;;5035074;28;20663;-67
2022/03/20 02:49:39;;;;;;;8.50;6.43;;;4.70;94.30;;;;;;5036000;28;20174;-66
2022/03/20 02:52:06;;;;;;;6.90;5.45;;;4.70;94.30;;;;;;5036148;28;20174;-66
2022/03/20 02:54:32;;;;;;;13.05;9.00;;;4.70;94.40;;;;;;5035678;28;20277;-67
2022/03/20 02:56:58;;;;;;;15.40;9.80;;;4.70;94.40;;;;;;5031517;28;20233;-66
2022/03/20 02:59:23;;;;;;;10.10;8.33;;;4.70;94.30;;;;;;5016246;28;20205;-66
2022/03/20 03:01:49;;;;;;;9.30;8.37;;;4.70;94.30;;;;;;5016169;28;20779;-67
2022/03/20 03:04:15;;;;;;;8.03;5.33;;;4.80;94.30;;;;;;5016629;28;20175;-66
2022/03/20 03:06:40;;;;;;;16.30;8.50;;;4.80;94.20;;;;;;5016030;28;20179;-68
2022/03/20 03:11:50;;;;;;;11.88;6.88;;;4.80;94.20;;;;;;5016007;28;20209;-66
2022/03/20 03:17:00;;;;;;;11.85;7.63;;;4.80;94.20;;;;;;5015982;28;20227;-66
2022/03/20 03:19:25;;;;;;;10.37;8.00;;;4.80;94.30;;;;;;5026997;28;20244;-68
2022/03/20 03:21:51;;;;;;;10.03;8.53;;;4.70;94.30;;;;;;5035577;28;20166;-67
2022/03/20 03:24:17;;;;;;;10.60;7.13;;;4.70;94.30;;;;;;5035139;28;20181;-67
2022/03/20 03:26:43;;;;;;;13.27;7.20;;;4.70;94.40;;;;;;5035620;28;20167;-67
2022/03/20 03:29:09;;;;;;;6.27;5.77;;;4.70;94.50;;;;;;5035299;28;20210;-66
2022/03/20 03:31:34;;;;;;;9.10;6.70;;;4.70;94.50;;;;;;5035230;28;20978;-66
2022/03/20 03:36:44;;;;;;;9.88;6.63;;;4.80;94.50;;;;;;5015445;28;20244;-66
2022/03/20 03:39:11;;;;;;;12.70;8.37;;;4.80;94.70;;;;;;5014788;28;20626;-65
2022/03/20 03:41:37;;;;;;;7.00;6.30;;;4.90;95.00;;;;;;5015329;28;20198;-67
2022/03/20 03:44:03;;;;;;;7.93;6.60;;;4.90;94.90;;;;;;5013604;28;20650;-67
2022/03/20 03:46:29;;;;;;;9.00;6.43;;;4.90;94.80;;;;;;5015633;28;20183;-66
2022/03/20 03:48:54;;;;;;;10.40;7.47;;;5.00;94.80;;;;;;5019345;28;20512;-66
2022/03/20 03:51:20;;;;;;;10.47;8.40;;;5.10;94.80;;;;;;5014829;28;20205;-66
2022/03/20 03:53:46;;;;;;;10.53;6.90;;;5.10;94.80;;;;;;5014914;28;20406;-67
2022/03/20 03:56:12;;;;;;;10.70;7.10;;;5.10;94.80;;;;;;5015016;28;20202;-66
2022/03/20 03:58:37;;;;;;;11.80;6.83;;;5.10;94.70;;;;;;5015466;28;20194;-68
2022/03/20 04:01:03;;;;;;;9.80;8.40;;;5.10;94.80;;;;;;5015537;28;20640;-68
2022/03/20 04:03:29;;;;;;;13.10;10.23;;;5.10;94.80;;;;;;5014275;28;20191;-66
2022/03/20 04:05:59;;;;;;;7.67;6.27;;;5.10;94.80;;;;;;5014798;28;20692;-67
2022/03/20 04:08:25;;;;;;;11.95;7.13;;;5.10;94.80;;;;;;5015028;28;20209;-66
2022/03/20 04:10:50;;;;;;;10.00;7.07;;;5.20;94.90;;;;;;5015016;28;20626;-66
2022/03/20 04:13:16;;;;;;;12.33;7.80;;;5.20;95.10;;;;;;5013141;28;20175;-68
2022/03/20 04:15:42;;;;;;;8.83;7.97;;;5.20;95.00;;;;;;5014946;28;20183;-66
2022/03/20 04:18:08;;;;;;;12.13;8.60;;;5.20;94.90;;;;;;5015937;28;20431;-67
2022/03/20 04:20:34;;;;;;;11.77;8.57;;;5.20;94.70;;;;;;5014772;28;20171;-67
2022/03/20 04:25:44;;;;;;;10.60;6.70;;;5.30;94.70;;;;;;5014510;28;20204;-68
2022/03/20 04:28:09;;;;;;;11.97;8.70;;;5.30;94.60;;;;;;5014563;28;20602;-68
2022/03/20 04:30:36;;;;;;;11.40;7.90;;;5.30;94.60;;;;;;5014631;28;20191;-68
2022/03/20 04:33:02;;;;;;;14.75;9.10;;;5.30;94.60;;;;;;5015340;28;20428;-67
2022/03/20 04:35:27;;;;;;;10.60;7.60;;;5.30;94.50;;;;;;5014131;28;20183;-66
2022/03/20 04:37:55;;;;;;;13.17;8.73;;;5.40;94.50;;;;;;5014298;28;20402;-67
2022/03/20 04:40:21;;;;;;;11.13;8.50;;;5.30;94.50;;;;;;5014671;28;20175;-67
2022/03/20 04:42:47;;;;;;;13.18;7.55;;;5.30;94.60;;;;;;5014137;28;20168;-67
2022/03/20 04:45:13;;;;;;;13.50;9.80;;;5.30;94.60;;;;;;5014014;28;20265;-68
2022/03/20 04:58:36;;;;;;;12.15;9.07;;;5.40;95.00;;;;;;5033963;28;20189;-68
2022/03/20 05:01:03;;;;;;;11.47;8.30;;;5.40;95.20;;;;;;5033681;28;20175;-66
2022/03/20 05:03:31;;;;;;;14.13;10.65;;;5.50;94.80;;;;;;5014690;28;20194;-68
2022/03/20 05:05:57;;;;;;;11.15;9.40;;;5.50;94.80;;;;;;5013913;28;20188;-69
2022/03/20 05:08:23;;;;;;;15.73;8.73;;;5.50;94.90;;;;;;5013989;28;20163;-68
2022/03/20 05:13:33;;;;;;;11.45;9.38;;;5.60;94.90;;;;;;5013578;28;20646;-66
2022/03/20 05:15:59;;;;;;;11.80;7.97;;;5.60;95.00;;;;;;5013584;28;20273;-69
2022/03/20 05:18:24;;;;;;;15.67;9.73;;;5.60;95.00;;;;;;5032953;28;20789;-68
2022/03/20 05:20:52;;;;;;;12.07;8.40;;;5.70;94.90;;;;;;5033533;28;20166;-68
2022/03/20 05:23:22;;;;;;;13.10;8.95;;;5.70;95.00;;;;;;5033031;28;20542;-68
2022/03/20 05:25:48;;;;;;;14.68;8.63;;;5.70;95.30;;;;;;5033415;28;20279;-68
2022/03/20 05:28:15;;;;;;;13.25;8.15;;;5.70;95.10;;;;;;5032014;28;20649;-68
2022/03/20 05:30:42;;;;;;;10.38;7.00;;;5.70;95.10;;;;;;5033148;28;20199;-67
2022/03/20 05:33:10;;;;;;;18.08;10.80;;;5.70;95.10;;;;;;5013353;28;20183;-67
2022/03/20 05:35:37;;;;;;;11.55;8.55;;;5.70;95.20;;;;;;5013434;28;20292;-68
2022/03/20 05:38:03;;;;;;;16.25;10.68;;;5.70;95.30;;;;;;5013480;28;20634;-68
2022/03/20 05:40:29;;;;;;;17.53;10.57;;;5.70;95.30;;;;;;5013381;28;20189;-68
2022/03/20 05:42:54;;;;;;;12.83;10.53;;;5.70;95.20;;;;;;5013389;28;20171;-67
2022/03/20 05:45:20;;;;;;;11.57;9.17;;;5.80;95.20;;;;;;5013176;28;20686;-66
2022/03/20 05:47:45;;;;;;;14.70;9.23;;;5.80;95.20;;;;;;5031536;28;20259;-68
2022/03/20 05:50:11;;;;;;;12.63;8.93;;;5.90;95.20;;;;;;5032913;28;20209;-66
2022/03/20 05:52:38;;;;;;;15.50;9.77;;;5.90;95.20;;;;;;5032867;28;20172;-68
2022/03/20 05:55:05;;;;;;;17.95;10.77;;;6.00;95.10;;;;;;5032699;28;20208;-68
2022/03/20 06:00:27;;;;;;;13.38;9.00;;;6.10;95.20;;;;;;5031643;28;20244;-69
2022/03/20 06:02:53;;;;;;;10.07;8.43;;;6.20;95.10;;;;;;5035065;28;20269;-67
2022/03/20 06:05:20;;;;;;;15.45;10.35;;;6.20;95.10;;;;;;5036432;28;20191;-69
2022/03/20 06:07:47;;;;;;;10.88;8.85;;;6.30;95.00;;;;;;5036799;28;20177;-69
2022/03/20 06:10:15;;;;;;;14.52;10.88;;;6.30;94.80;;;;;;5036737;28;20625;-67
2022/03/20 06:12:41;;;;;;;11.98;8.40;;;6.40;94.70;;;;;;5036896;28;20163;-68
2022/03/20 06:15:10;;;;;;;15.00;9.10;;;6.50;94.60;;;;;;5034977;28;20184;-66
2022/03/20 06:17:37;;;;;;;19.08;9.85;;;6.60;94.50;;;;;;5016822;28;20669;-69
2022/03/20 06:20:06;;;;;;;14.30;8.68;;;6.70;94.50;;;;;;5016636;28;20243;-68
2022/03/20 06:22:32;;;;;;;12.52;10.23;;;6.80;94.50;;;;;;5016747;28;20278;-69
2022/03/20 06:24:58;;;;;;;16.25;10.00;;;7.00;94.20;;;;;;5016347;28;20284;-67
2022/03/20 06:27:24;;;;;;;13.50;9.77;;;7.30;94.30;;;;;;5016821;28;20250;-68
2022/03/20 06:29:50;;;;;;;10.02;7.90;;;7.50;94.10;;;;;;5016879;28;20166;-68
2022/03/20 06:32:15;;;;;;;13.20;10.03;;;7.80;93.30;;;;;;5016543;28;20171;-66
2022/03/20 06:34:42;;;;;;;18.50;9.03;;;7.90;93.00;;;;;;5016125;28;20700;-65
2022/03/20 06:37:08;;;;;;;11.50;9.10;;;8.00;92.80;;;;;;5016412;28;20170;-67
2022/03/20 06:39:34;;;;;;;9.30;8.13;;;8.00;92.60;;;;;;5028702;28;20171;-69
2022/03/20 06:42:00;;;;;;;14.50;10.17;;;8.00;92.50;;;;;;5056129;28;20231;-66
2022/03/20 06:44:26;;;;;;;10.90;7.68;;;8.00;92.30;;;;;;5055347;28;20244;-69
2022/03/20 06:46:54;;;;;;;10.35;8.63;;;8.00;92.50;;;;;;5035588;28;20174;-67
2022/03/20 06:49:20;;;;;;;16.23;9.65;;;8.10;92.40;;;;;;5034341;28;20758;-66
2022/03/20 06:51:46;;;;;;;10.97;8.80;;;8.40;92.10;;;;;;5036191;28;20288;-69
2022/03/20 06:54:12;;;;;;;9.43;8.52;;;8.40;91.60;;;;;;5017609;28;20264;-65
2022/03/20 06:56:38;;;;;;;15.82;10.23;;;8.60;91.60;;;;;;5016660;28;20171;-66
2022/03/20 06:59:04;;;;;;;14.63;9.07;;;8.70;91.70;;;;;;5023539;28;20180;-67
2022/03/20 07:01:30;;;;;;;16.70;10.47;;;9.00;91.50;;;;;;5038934;28;20514;-70
2022/03/20 07:03:56;;;;;;;11.50;9.05;;;9.20;91.20;;;;;;5038133;28;20177;-70
2022/03/20 07:06:26;;;;;;;12.10;9.70;;;9.40;90.60;;;;;;5055437;28;20598;-66
2022/03/20 07:08:55;;;;;;;17.30;10.40;;;9.70;90.30;;;;;;5045818;28;20229;-69
2022/03/20 07:11:20;;;;;;;12.75;10.52;;;10.00;88.30;;;;;;5015994;28;20216;-69
2022/03/20 07:13:49;;;;;;;22.70;10.43;;;10.40;88.00;;;;;;5014403;28;20172;-70
2022/03/20 07:16:16;;;;;;;14.90;11.30;;;10.80;86.30;;;;;;5023262;28;20188;-68
2022/03/20 07:18:47;;;;;;;17.03;11.13;;;11.20;85.40;;;;;;5055479;28;20192;-67
2022/03/20 07:21:14;;;;;;;19.83;12.17;;;11.70;84.90;;;;;;5055513;28;20411;-68
2022/03/20 07:23:40;;;;;;;13.83;10.90;;;12.20;81.80;;;;;;5044224;28;20431;-69
2022/03/20 07:31:34;;;;;;;15.33;11.67;;;12.90;78.60;;;;;;5035687;28;20762;-69
2022/03/20 07:34:00;;;;;;;14.13;10.30;;;13.40;77.20;;;;;;5044896;28;20396;-67
2022/03/20 07:36:26;;;;;;;14.30;10.30;;;13.70;76.30;;;;;;5044843;28;20568;-68
2022/03/20 07:38:51;;;;;;;11.67;10.47;;;13.90;75.00;;;;;;5042213;28;20870;-68
2022/03/20 07:41:17;;;;;;;12.93;10.87;;;14.10;73.00;;;;;;5045424;28;20178;-67
2022/03/20 07:43:43;;;;;;;12.20;10.43;;;14.20;72.90;;;;;;5042271;28;20182;-67
2022/03/20 07:46:08;;;;;;;12.83;10.07;;;14.30;72.50;;;;;;5042403;28;20399;-65
2022/03/20 07:48:35;;;;;;;12.90;9.60;;;14.50;72.60;;;;;;5043893;28;20170;-67
2022/03/20 07:51:01;;;;;;;14.60;11.67;;;14.90;71.00;;;;;;5042330;28;20767;-67
2022/03/20 07:53:27;;;;;;;11.70;9.50;;;15.30;69.90;;;;;;5036318;28;20390;-66
2022/03/20 07:55:53;;;;;;;11.60;9.90;;;15.60;68.40;;;;;;5037647;28;20433;-69
2022/03/20 07:58:19;;;;;;;13.00;10.47;;;15.90;67.20;;;;;;5041959;28;20179;-67
2022/03/20 08:00:45;;;;;;;14.57;11.50;;;16.30;65.80;;;;;;5041522;28;20471;-69
2022/03/20 08:03:11;;;;;;;13.17;10.53;;;16.60;65.20;;;;;;5041825;28;20404;-68
2022/03/20 08:05:37;;;;;;;10.90;9.27;;;17.00;64.50;;;;;;5038407;28;20415;-67
2022/03/20 08:08:04;;;;;;;13.00;10.50;;;17.40;63.50;;;;;;5038293;28;20276;-68
2022/03/20 08:10:30;;;;;;;12.83;9.43;;;17.90;62.70;;;;;;5029560;28;20461;-70
2022/03/20 08:12:55;;;;;;;11.03;8.30;;;18.40;62.30;;;;;;5028850;28;20429;-64
2022/03/20 08:15:21;;;;;;;12.27;9.63;;;19.10;60.90;;;;;;5028530;28;20193;-65
2022/03/20 08:17:50;;;;;;;12.53;10.53;;;19.60;59.20;;;;;;5033384;28;20197;-65
2022/03/20 08:20:16;;;;;;;19.30;13.70;;;20.00;57.90;;;;;;5032360;28;20166;-65
2022/03/20 08:22:42;;;;;;;13.50;10.67;;;20.30;57.20;;;;;;5030302;28;20452;-67
2022/03/20 08:25:10;;;;;;;16.00;11.00;;;20.50;56.50;;;;;;5031328;28;20499;-67
2022/03/20 08:27:46;;;;;;;13.50;10.93;;;20.70;56.30;;;;;;5030231;28;20900;-66
2022/03/20 08:30:15;;;;;;;12.13;11.03;;;20.90;55.60;;;;;;5020586;28;20850;-67
2022/03/20 08:32:43;;;;;;;12.33;11.00;;;20.90;54.80;;;;;;5030786;28;20419;-65
2022/03/20 08:35:13;;;;;;;10.60;9.47;;;20.60;54.70;;;;;;5013003;28;20416;-67
2022/03/20 08:37:43;;;;;;;11.97;9.80;;;20.60;54.90;;;;;;5014896;28;20720;-70
2022/03/20 08:40:16;;;;;;;11.83;10.63;;;20.70;54.20;;;;;;5032056;28;20456;-68
2022/03/20 08:42:47;;;;;;;12.83;11.43;;;21.00;53.90;;;;;;5030455;28;20413;-67
2022/03/20 08:45:13;;;;;;;13.90;10.50;;;21.10;53.80;;;;;;5026011;28;20481;-68
2022/03/20 08:47:40;;;;;;;13.63;11.00;;;21.20;53.40;;;;;;5031006;28;20408;-69
2022/03/20 08:50:07;;;;;;;12.67;10.97;;;21.50;52.70;;;;;;5012806;28;20453;-68
2022/03/20 08:52:33;;;;;;;13.60;10.70;;;21.50;52.70;;;;;;5013680;28;20385;-66
2022/03/20 08:54:59;;;;;;;13.13;10.70;;;21.80;52.40;;;;;;5013293;28;20442;-67
2022/03/20 08:57:27;;;;;;;12.07;10.60;;;22.10;52.30;;;;;;5013654;28;20379;-67
2022/03/20 08:59:54;;;;;;;12.20;10.00;;;22.30;51.50;;;;;;5029048;28;20177;-68
2022/03/20 09:02:20;;;;;;;10.90;9.77;;;22.70;51.00;;;;;;5033042;28;20445;-67
2022/03/20 09:04:45;;;;;;;12.40;11.20;;;23.10;50.60;;;;;;5029376;28;20852;-67
2022/03/20 09:07:11;;;;;;;11.23;9.90;;;23.40;50.20;;;;;;5033282;28;20257;-67
2022/03/20 09:09:37;;;;;;;12.70;10.60;;;23.50;49.90;;;;;;5018036;28;20529;-66
2022/03/20 09:12:02;;;;;;;13.33;11.13;;;23.80;48.90;;;;;;5017882;28;20202;-68
2022/03/20 09:14:28;;;;;;;11.73;10.53;;;23.80;49.20;;;;;;5031714;28;20205;-69
2022/03/20 09:19:38;;;;;;;14.53;10.73;;;23.80;48.80;;;;;;5013191;28;20366;-67
2022/03/20 09:22:06;;;;;;;15.63;12.60;;;23.60;47.80;;;;;;5013292;28;21017;-69
2022/03/20 09:24:32;;;;;;;12.67;11.37;;;23.60;48.40;;;;;;5012691;28;20221;-67
2022/03/20 09:27:00;;;;;;;13.60;12.10;;;23.70;48.30;;;;;;5020632;28;21110;-68
2022/03/20 09:29:26;;;;;;;13.10;11.67;;;23.90;48.10;;;;;;5032407;28;20410;-69
2022/03/20 09:31:52;;;;;;;13.83;12.30;;;24.10;48.10;;;;;;5031440;28;20456;-69
2022/03/20 09:34:18;;;;;;;14.37;11.97;;;24.10;47.70;;;;;;5032836;28;20449;-65
2022/03/20 09:36:43;;;;;;;12.63;10.70;;;24.20;46.70;;;;;;5025127;28;20632;-62
2022/03/20 09:39:09;;;;;;;12.47;11.07;;;24.60;47.30;;;;;;5039148;28;20248;-65
2022/03/20 09:41:39;;;;;;;14.43;12.23;;;24.80;47.10;;;;;;5044651;28;20174;-64
2022/03/20 09:44:05;;;;;;;15.03;12.73;;;25.20;46.30;;;;;;5040118;28;20178;-70
2022/03/20 09:46:32;;;;;;;13.40;12.10;;;25.30;45.90;;;;;;5040346;28;20473;-66
2022/03/20 09:49:00;;;;;;;11.97;10.77;;;25.40;45.60;;;;;;5051704;28;20571;-66
2022/03/20 09:51:26;;;;;;;17.20;12.30;;;25.40;45.40;;;;;;5013250;28;20469;-67
2022/03/20 09:53:52;;;;;;;14.33;12.07;;;25.40;45.30;;;;;;5012822;28;20497;-66
2022/03/20 09:56:18;;;;;;;13.63;11.27;;;25.60;45.30;;;;;;5030428;28;20202;-68
2022/03/20 09:58:43;;;;;;;11.50;10.30;;;25.80;45.10;;;;;;5019378;28;20641;-65
2022/03/20 10:01:09;;;;;;;12.73;10.50;;;25.70;45.10;;;;;;5034487;28;20250;-67
2022/03/20 10:03:35;;;;;;;12.87;11.57;;;25.60;44.30;;;;;;5022804;28;20187;-65
2022/03/20 10:06:16;;;;;;;14.13;12.43;;;25.60;44.30;;;;;;5023737;28;20434;-66
2022/03/20 10:08:56;;;;;;;11.10;10.00;;;25.60;44.40;;;;;;5033091;28;20163;-65
2022/03/20 10:11:23;;;;;;;13.40;11.70;;;25.50;44.10;;;;;;5019314;28;20449;-65
2022/03/20 10:14:07;;;;;;;13.53;11.80;;;25.00;44.30;;;;;;5012850;28;20483;-66
2022/03/20 10:16:34;;;;;;;12.10;10.67;;;24.80;45.40;;;;;;5026059;28;20424;-68
2022/03/20 10:19:00;;;;;;;14.17;11.80;;;24.70;45.00;;;;;;5032915;28;20445;-66
2022/03/20 10:21:42;;;;;;;11.33;10.20;;;24.10;45.20;;;;;;5018933;28;20422;-65
2022/03/20 10:24:20;;;;;;;13.13;9.73;;;24.00;45.70;;;;;;5012606;28;20705;-67
2022/03/20 10:26:50;;;;;;;13.23;11.10;;;24.10;44.80;;;;;;5020487;28;20969;-66
2022/03/20 10:29:17;;;;;;;16.13;11.97;;;24.00;44.90;;;;;;5027459;28;20809;-66
2022/03/20 10:31:53;;;;;;;13.83;10.10;;;23.10;45.60;;;;;;5032467;28;20460;-67
2022/03/20 10:34:20;;;;;;;12.70;10.27;;;22.10;46.40;;;;;;5017070;28;20811;-70
2022/03/20 10:36:48;;;;;;;11.47;10.27;;;21.50;46.40;;;;;;5032677;28;20391;-70
2022/03/20 10:39:19;;;;;;;16.73;10.53;;;20.80;47.60;;;;;;5029915;28;20736;-70
2022/03/20 10:41:46;;;;;;;12.70;9.93;;;20.20;49.20;;;;;;5014676;28;20461;-69
2022/03/20 10:44:14;;;;;;;15.30;11.10;;;19.80;49.50;;;;;;5023040;28;20405;-69
2022/03/20 10:46:40;;;;;;;13.87;10.67;;;19.50;50.60;;;;;;5032282;28;20410;-69
2022/03/20 10:49:07;;;;;;;15.17;10.57;;;19.00;50.60;;;;;;5017560;28;20415;-69
2022/03/20 10:51:42;;;;;;;14.20;10.07;;;18.90;50.80;;;;;;5014948;28;20536;-67
2022/03/20 10:54:22;;;;;;;14.77;11.00;;;19.00;51.50;;;;;;5016938;28;20488;-69
2022/03/20 10:56:56;;;;;;;13.40;10.47;;;19.30;51.90;;;;;;5035403;28;20476;-69
2022/03/20 10:59:23;;;;;;;16.60;9.97;;;19.70;51.50;;;;;;5035567;28;20401;-69
2022/03/20 11:01:49;;;;;;;12.77;9.30;;;20.00;51.70;;;;;;5031789;28;20493;-70
2022/03/20 11:04:16;;;;;;;14.40;10.10;;;20.40;50.50;;;;;;5015951;28;20396;-70
2022/03/20 11:06:47;;;;;;;17.07;10.47;;;20.60;49.70;;;;;;5015652;28;20780;-69
2022/03/20 11:09:13;;;;;;;12.70;9.90;;;20.50;50.80;;;;;;5014693;28;20433;-70
2022/03/20 11:11:51;;;;;;;14.43;9.47;;;20.20;50.30;;;;;;5015049;28;20439;-67
2022/03/20 11:14:22;;;;;;;12.90;9.67;;;19.90;50.30;;;;;;5022307;28;20417;-71
2022/03/20 11:16:51;;;;;;;15.03;11.37;;;19.50;51.10;;;;;;5034300;28;20422;-70
2022/03/20 11:19:22;;;;;;;12.93;11.40;;;19.40;51.20;;;;;;5018777;28;20564;-68
2022/03/20 11:21:52;;;;;;;13.03;9.77;;;19.30;51.70;;;;;;5015765;28;20410;-69
2022/03/20 11:24:19;;;;;;;11.70;9.27;;;19.10;52.10;;;;;;5014217;28;20488;-68
2022/03/20 11:26:49;;;;;;;13.90;9.97;;;18.80;53.70;;;;;;5016068;28;20417;-69
2022/03/20 11:29:18;;;;;;;13.73;8.97;;;18.30;53.10;;;;;;5034004;28;20474;-69
2022/03/20 11:31:44;;;;;;;11.60;8.73;;;17.80;54.20;;;;;;5035573;28;20817;-68
2022/03/20 11:34:12;;;;;;;13.77;9.40;;;17.70;55.40;;;;;;5018929;28;20483;-68
2022/03/20 11:37:06;;;;;;;10.30;7.97;;;17.60;56.50;;;;;;5019040;28;20488;-68
2022/03/20 11:39:34;;;;;;;10.70;9.10;;;17.50;56.70;;;;;;5035766;28;20971;-69
2022/03/20 11:42:22;;;;;;;13.20;8.77;;;17.40;57.10;;;;;;5024568;28;20450;-70
2022/03/20 11:45:00;;;;;;;11.97;8.80;;;17.60;57.70;;;;;;5019425;28;20496;-70
2022/03/20 11:47:29;;;;;;;20.07;7.90;;;17.80;56.60;;;;;;5019214;28;20464;-68
2022/03/20 11:50:07;;;;;;;10.57;8.17;;;17.90;55.60;;;;;;5049745;28;20412;-68
2022/03/20 11:52:58;;;;;;;9.73;7.47;;;17.80;56.00;;;;;;5041348;28;20456;-68
2022/03/20 11:55:53;;;;;;;10.50;7.57;;;17.60;57.10;;;;;;5018852;28;20441;-67
2022/03/20 11:58:22;;;;;;;10.43;7.60;;;17.40;56.60;;;;;;5018123;28;20516;-68
2022/03/20 12:01:05;;;;;;;7.97;6.10;;;17.40;56.60;;;;;;5014989;28;20481;-66
2022/03/20 12:03:53;;;;;;;11.00;8.23;;;17.40;57.40;;;;;;5014415;28;20461;-70
2022/03/20 12:06:31;;;;;;;7.97;7.03;;;17.20;56.90;;;;;;5014978;28;20765;-69
2022/03/20 12:09:12;;;;;;;7.43;5.43;;;17.10;57.00;;;;;;5015247;28;20402;-68
2022/03/20 12:11:52;;;;;;;11.67;7.53;;;17.00;57.20;;;;;;5014774;28;20425;-68
2022/03/20 12:14:32;;;;;;;9.13;7.27;;;17.00;57.80;;;;;;5014051;28;20376;-66
2022/03/20 12:17:00;;;;;;;11.83;7.23;;;17.00;57.50;;;;;;5014732;28;20510;-69
2022/03/20 12:19:41;;;;;;;15.37;7.93;;;17.20;59.00;;;;;;5014609;28;20487;-68
2022/03/20 12:22:19;;;;;;;12.17;8.20;;;17.30;57.80;;;;;;5014549;28;20401;-68
2022/03/20 12:24:52;;;;;;;9.70;6.60;;;17.40;57.00;;;;;;5030561;28;20510;-68
2022/03/20 12:27:24;;;;;;;11.20;8.50;;;17.40;56.80;;;;;;5014425;28;20499;-67
2022/03/20 12:29:53;;;;;;;11.57;8.37;;;17.50;56.50;;;;;;5014383;28;20400;-67
2022/03/20 12:32:21;;;;;;;9.80;7.40;;;17.40;56.20;;;;;;5014485;28;20415;-70
2022/03/20 12:35:04;;;;;;;10.67;6.87;;;17.30;56.20;;;;;;5013897;28;20431;-67
2022/03/20 12:37:33;;;;;;;8.90;7.40;;;17.30;56.50;;;;;;5017921;28;20435;-67
2022/03/20 12:40:11;;;;;;;11.90;7.90;;;17.20;56.40;;;;;;5034368;28;20393;-69
2022/03/20 12:42:43;;;;;;;10.20;8.10;;;17.20;57.20;;;;;;5034247;28;20988;-69
2022/03/20 12:45:15;;;;;;;11.37;9.00;;;17.20;56.60;;;;;;5033515;28;20433;-68
2022/03/20 12:47:55;;;;;;;9.67;7.37;;;17.10;56.50;;;;;;5029318;28;20425;-68
2022/03/20 12:50:27;;;;;;;11.73;8.23;;;17.00;56.70;;;;;;5034032;28;20427;-69
2022/03/20 12:53:01;;;;;;;9.70;7.57;;;16.90;56.80;;;;;;5033757;28;20885;-67
2022/03/20 12:55:27;;;;;;;11.40;8.07;;;16.90;57.10;;;;;;5033519;28;20421;-70
2022/03/20 12:57:53;;;;;;;8.93;7.37;;;16.90;56.80;;;;;;5034102;28;20783;-69
2022/03/20 13:00:22;;;;;;;12.17;8.83;;;16.90;56.40;;;;;;5033416;28;20456;-68
2022/03/20 13:03:08;;;;;;;10.40;7.40;;;16.90;56.30;;;;;;5012449;28;20460;-69
2022/03/20 13:06:00;;;;;;;10.80;7.67;;;16.80;56.00;;;;;;5012426;28;20955;-69
2022/03/20 13:08:36;;;;;;;7.50;6.53;;;16.70;56.10;;;;;;5014077;28;20563;-69
2022/03/20 13:14:12;;;;;;;9.47;5.90;;;16.70;56.00;;;;;;5013278;28;20401;-67
2022/03/20 13:17:07;;;;;;;10.43;6.13;;;16.80;55.50;;;;;;5026142;28;20436;-67
2022/03/20 13:19:37;;;;;;;7.50;6.43;;;16.80;55.70;;;;;;5027571;28;20467;-70
2022/03/20 13:22:10;;;;;;;10.40;7.53;;;17.00;55.70;;;;;;5033288;28;20422;-67
2022/03/20 13:24:38;;;;;;;12.60;7.40;;;17.00;55.70;;;;;;5032777;28;20465;-67
2022/03/20 13:27:06;;;;;;;9.93;7.30;;;17.00;55.40;;;;;;5033226;28;20425;-68